Time;durP1;ratioP1;P1;durP2;ratioP2;P2;SDS_P1;SDS_P2;PMS_P1;PMS_P2;Temp;Humidity;BMP_temperature;BMP_pressure;BME280_temperature;BME280_humidity;BME280_pressure;Samples;Min_cycle;Max_cycle;Signal;HPM_P1;HPM_P2
2022/08/22 00:01:11;;;;;;;;;;;;;;;19.73;98.00;94570.31;5134789;27;1040;-49
2022/08/22 00:04:02;;;;;;;;;;;;;;;19.86;97.29;94567.41;5134918;27;1016;-50
2022/08/22 00:06:40;;;;;;;;;;;;;;;19.89;98.35;94559.63;5134697;27;1103;-50
2022/08/22 00:09:07;;;;;;;;;;;;;;;19.93;98.14;94567.31;5134735;27;1107;-49
2022/08/22 00:11:41;;;;;;;;;;;;;;;19.97;98.20;94566.59;5134663;27;1083;-50
2022/08/22 00:14:23;;;;;;;;;;;;;;;19.97;98.05;94563.88;5134577;27;1024;-49
2022/08/22 00:16:56;;;;;;;;;;;;;;;20.15;95.59;94559.44;5134544;27;1063;-50
2022/08/22 00:19:46;;;;;;;;;;;;;;;20.33;93.41;94556.59;5134803;27;989;-49
2022/08/22 00:22:21;;;;;;;;;;;;;;;20.56;90.77;94549.50;5121202;27;1874;-49
2022/08/22 00:24:54;;;;;;;;;;;;;;;20.66;89.56;94545.16;5134737;27;1910;-49
2022/08/22 00:27:22;;;;;;;;;;;;;;;20.59;90.51;94549.84;5134563;27;1047;-50
2022/08/22 00:29:54;;;;;;;;;;;;;;;20.39;93.46;94549.38;5134555;27;1048;-50
2022/08/22 00:32:31;;;;;;;;;;;;;;;20.29;93.54;94547.28;5134245;27;1059;-49
2022/08/22 00:35:02;;;;;;;;;;;;;;;20.16;95.63;94555.66;5134436;27;1075;-50
2022/08/22 00:37:36;;;;;;;;;;;;;;;19.99;96.67;94548.19;5116043;28;1051;-49
2022/08/22 00:40:17;;;;;;;;;;;;;;;19.97;97.66;94553.03;5134272;27;1310;-49
2022/08/22 00:43:02;;;;;;;;;;;;;;;19.88;97.33;94557.13;5134167;27;1999;-49
2022/08/22 00:45:28;;;;;;;;;;;;;;;19.79;98.19;94550.44;5153097;27;1913;-49
2022/08/22 00:48:12;;;;;;;;;;;;;;;19.77;99.12;94549.81;5154669;27;1221;-51
2022/08/22 00:50:57;;;;;;;;;;;;;;;19.72;98.07;94545.09;5155191;27;980;-49
2022/08/22 00:53:42;;;;;;;;;;;;;;;19.62;98.36;94551.06;5154783;27;1016;-49
2022/08/22 00:56:17;;;;;;;;;;;;;;;19.63;98.23;94551.88;5154891;27;1020;-49
2022/08/22 00:59:02;;;;;;;;;;;;;;;19.64;97.72;94553.53;5154792;27;1014;-49
2022/08/22 01:01:31;;;;;;;;;;;;;;;19.56;98.59;94560.13;5154897;27;1025;-49
2022/08/22 01:04:17;;;;;;;;;;;;;;;19.51;98.36;94565.41;5154701;27;1917;-49
2022/08/22 01:06:46;;;;;;;;;;;;;;;19.52;98.70;94561.66;5102508;27;1233;-49
2022/08/22 01:09:31;;;;;;;;;;;;;;;19.56;98.98;94560.13;5154812;27;1007;-50
2022/08/22 01:12:15;;;;;;;;;;;;;;;19.54;98.80;94550.56;5154831;27;1099;-49
2022/08/22 01:14:48;;;;;;;;;;;;;;;19.56;100.00;94551.16;5154752;27;1090;-49
2022/08/22 01:17:32;;;;;;;;;;;;;;;19.63;99.91;94560.84;5154855;27;957;-49
2022/08/22 01:19:59;;;;;;;;;;;;;;;19.65;99.24;94553.31;5154851;27;976;-49
2022/08/22 01:22:37;;;;;;;;;;;;;;;19.66;99.34;94560.38;5154510;27;1012;-49
2022/08/22 01:25:18;;;;;;;;;;;;;;;19.57;98.94;94559.06;5154472;27;1955;-49
2022/08/22 01:28:00;;;;;;;;;;;;;;;19.48;100.00;94557.72;5154767;27;967;-49
2022/08/22 01:30:45;;;;;;;;;;;;;;;19.47;99.67;94565.03;5154559;27;1190;-49
2022/08/22 01:33:29;;;;;;;;;;;;;;;19.54;98.84;94556.81;5154445;27;1010;-50
2022/08/22 01:36:06;;;;;;;;;;;;;;;19.59;98.73;94551.50;5154583;27;1078;-49
2022/08/22 01:38:32;;;;;;;;;;;;;;;19.60;98.92;94553.19;5154429;27;1036;-49
2022/08/22 01:41:28;;;;;;;;;;;;;;;19.57;99.74;94545.50;5154554;27;1028;-49
2022/08/22 01:44:07;;;;;;;;;;;;;;;19.55;99.54;94549.50;5149071;27;2000;-49
2022/08/22 01:46:36;;;;;;;;;;;;;;;19.46;99.72;94549.00;5134081;28;973;-49
2022/08/22 01:49:07;;;;;;;;;;;;;;;19.41;100.00;94552.41;5133470;28;1243;-49
2022/08/22 01:51:54;;;;;;;;;;;;;;;19.37;100.00;94547.66;5134338;27;1082;-49
2022/08/22 01:54:34;;;;;;;;;;;;;;;19.33;100.00;94558.16;5137160;27;1282;-49
2022/08/22 01:57:04;;;;;;;;;;;;;;;19.34;100.00;94548.97;5137414;27;1107;-49
2022/08/22 01:59:37;;;;;;;;;;;;;;;19.39;100.00;94551.81;5137148;27;1036;-49
2022/08/22 02:02:06;;;;;;;;;;;;;;;19.38;100.00;94546.63;5137268;27;1106;-49
2022/08/22 02:04:37;;;;;;;;;;;;;;;19.38;100.00;94552.88;5137097;27;1980;-50
2022/08/22 02:07:16;;;;;;;;;;;;;;;19.43;100.00;94546.78;5137176;27;1047;-49
2022/08/22 02:09:52;;;;;;;;;;;;;;;19.48;100.00;94547.72;5137256;27;1041;-49
2022/08/22 02:12:21;;;;;;;;;;;;;;;19.57;100.00;94545.50;5137004;27;1008;-50
2022/08/22 02:14:56;;;;;;;;;;;;;;;19.62;100.00;94555.66;5136999;27;1045;-49
2022/08/22 02:17:28;;;;;;;;;;;;;;;19.62;99.66;94540.22;5136823;27;1084;-49
2022/08/22 02:20:00;;;;;;;;;;;;;;;19.47;99.81;94540.63;5136857;27;1098;-50
2022/08/22 02:22:39;;;;;;;;;;;;;;;19.40;100.00;94548.03;5136868;27;1027;-50
2022/08/22 02:25:06;;;;;;;;;;;;;;;19.38;100.00;94547.44;5136547;27;1910;-49
2022/08/22 02:27:35;;;;;;;;;;;;;;;19.40;100.00;94549.94;5136830;27;1008;-49
2022/08/22 02:30:13;;;;;;;;;;;;;;;19.47;100.00;94547.94;5136564;27;1033;-50
2022/08/22 02:32:39;;;;;;;;;;;;;;;19.46;100.00;94543.56;5136959;27;945;-50
2022/08/22 02:35:06;;;;;;;;;;;;;;;19.49;100.00;94545.84;5136605;27;980;-49
2022/08/22 02:37:38;;;;;;;;;;;;;;;19.55;100.00;94541.38;5136783;27;1062;-49
2022/08/22 02:40:05;;;;;;;;;;;;;;;19.59;100.00;94537.94;5136388;27;1045;-50
2022/08/22 02:42:38;;;;;;;;;;;;;;;19.62;100.00;94537.50;5136428;27;1095;-50
2022/08/22 02:45:16;;;;;;;;;;;;;;;19.59;100.00;94535.25;5151356;27;1988;-50
2022/08/22 02:47:55;;;;;;;;;;;;;;;19.55;100.00;94538.66;5157176;27;1080;-50
2022/08/22 02:50:21;;;;;;;;;;;;;;;19.47;100.00;94540.63;5157001;27;964;-50
2022/08/22 02:52:53;;;;;;;;;;;;;;;19.46;100.00;94539.00;5156979;27;1032;-49
2022/08/22 02:55:30;;;;;;;;;;;;;;;19.46;100.00;94533.59;5156737;27;1024;-50
2022/08/22 02:58:11;;;;;;;;;;;;;;;19.45;100.00;94541.94;5157015;27;1087;-49
2022/08/22 03:00:46;;;;;;;;;;;;;;;19.44;100.00;94546.50;5156882;27;1525;-49
2022/08/22 03:03:21;;;;;;;;;;;;;;;19.51;100.00;94549.97;5156727;27;1083;-49
2022/08/22 03:06:04;;;;;;;;;;;;;;;19.54;100.00;94537.84;5156852;27;2014;-48
2022/08/22 03:08:36;;;;;;;;;;;;;;;19.54;100.00;94540.56;5156830;27;1138;-48
2022/08/22 03:11:15;;;;;;;;;;;;;;;19.49;100.00;94549.38;5138113;27;1035;-50
2022/08/22 03:13:57;;;;;;;;;;;;;;;19.48;100.00;94545.03;5156608;27;1067;-49
2022/08/22 03:16:26;;;;;;;;;;;;;;;19.49;100.00;94556.69;5156396;27;1954;-49
2022/08/22 03:18:52;;;;;;;;;;;;;;;19.40;100.00;94549.94;5156545;27;1023;-49
2022/08/22 03:21:18;;;;;;;;;;;;;;;19.45;100.00;94553.59;5156219;27;1032;-50
2022/08/22 03:23:50;;;;;;;;;;;;;;;19.43;100.00;94553.00;5156480;27;1077;-50
2022/08/22 03:26:35;;;;;;;;;;;;;;;19.44;100.00;94557.34;5156102;27;1003;-49
2022/08/22 03:29:16;;;;;;;;;;;;;;;19.39;100.00;94557.25;5156589;27;960;-50
2022/08/22 03:32:08;;;;;;;;;;;;;;;19.48;100.00;94560.44;5156148;27;1019;-49
2022/08/22 03:34:35;;;;;;;;;;;;;;;19.51;100.00;94563.50;5116784;27;1351;-49
2022/08/22 03:37:19;;;;;;;;;;;;;;;19.55;100.00;94563.88;5156216;27;1055;-49
2022/08/22 03:39:53;;;;;;;;;;;;;;;19.58;99.26;94565.28;5137825;27;1028;-49
2022/08/22 03:42:20;;;;;;;;;;;;;;;19.57;100.00;94556.34;5156071;27;1075;-49
2022/08/22 03:44:55;;;;;;;;;;;;;;;19.60;99.90;94560.50;5143390;27;1994;-49
2022/08/22 03:47:30;;;;;;;;;;;;;;;19.57;98.68;94558.22;5135042;27;1009;-50
2022/08/22 03:50:15;;;;;;;;;;;;;;;19.55;98.05;94561.16;5134843;27;1345;-49
2022/08/22 03:56:04;;;;;;;;;;;;;;;19.49;99.43;94564.81;5134875;27;921;-49
2022/08/22 03:58:30;;;;;;;;;;;;;;;19.46;99.75;94554.41;5135056;27;1868;-49
2022/08/22 04:01:05;;;;;;;;;;;;;;;19.40;100.00;94563.47;5134824;27;1074;-49
2022/08/22 04:03:58;;;;;;;;;;;;;;;19.39;100.00;94556.38;5134948;27;1094;-49
2022/08/22 04:06:34;;;;;;;;;;;;;;;19.36;100.00;94559.59;5134929;27;1115;-49
2022/08/22 04:09:11;;;;;;;;;;;;;;;19.48;100.00;94555.00;5134853;27;1083;-49
2022/08/22 04:11:40;;;;;;;;;;;;;;;19.57;99.71;94555.53;5134826;27;957;-49
2022/08/22 04:14:24;;;;;;;;;;;;;;;19.68;98.35;94560.97;5134422;27;1071;-49
2022/08/22 04:17:09;;;;;;;;;;;;;;;19.72;98.99;94555.09;5134763;27;1020;-49
2022/08/22 04:19:51;;;;;;;;;;;;;;;19.63;99.26;94557.31;5134800;27;1040;-49
2022/08/22 04:22:36;;;;;;;;;;;;;;;19.61;100.00;94554.00;5116321;27;1092;-49
2022/08/22 04:25:06;;;;;;;;;;;;;;;19.67;99.85;94561.19;5134440;27;2032;-49
2022/08/22 04:27:38;;;;;;;;;;;;;;;19.70;100.00;94558.84;5134476;27;1167;-49
2022/08/22 04:30:24;;;;;;;;;;;;;;;19.66;100.00;94567.69;5134505;27;1870;-49
2022/08/22 04:33:03;;;;;;;;;;;;;;;19.67;100.00;94570.19;5134342;27;1872;-49
2022/08/22 04:35:35;;;;;;;;;;;;;;;19.64;100.00;94569.81;5134490;27;1008;-50
2022/08/22 04:38:21;;;;;;;;;;;;;;;19.77;99.26;94574.22;5134511;27;953;-49
2022/08/22 04:41:04;;;;;;;;;;;;;;;19.78;99.60;94578.59;5116949;27;1866;-49
2022/08/22 04:43:35;;;;;;;;;;;;;;;19.78;100.00;94576.69;5135815;27;1172;-50
2022/08/22 04:46:22;;;;;;;;;;;;;;;19.84;100.00;94578.50;5154868;27;1988;-49
2022/08/22 04:49:03;;;;;;;;;;;;;;;19.84;100.00;94583.09;5154754;27;1919;-49
2022/08/22 04:51:35;;;;;;;;;;;;;;;19.84;99.40;94572.22;5154838;27;1036;-49
2022/08/22 04:54:23;;;;;;;;;;;;;;;19.88;99.62;94578.84;5154999;27;975;-49
2022/08/22 04:57:08;;;;;;;;;;;;;;;19.86;99.47;94578.25;5154791;27;1060;-49
2022/08/22 04:59:34;;;;;;;;;;;;;;;19.93;98.79;94576.25;5154923;27;1118;-50
2022/08/22 05:02:05;;;;;;;;;;;;;;;19.94;97.00;94577.94;5154772;27;1071;-49
2022/08/22 05:04:36;;;;;;;;;;;;;;;19.93;98.82;94581.69;5154892;27;1976;-50
2022/08/22 05:07:09;;;;;;;;;;;;;;;19.93;97.28;94584.41;5154954;27;975;-50
2022/08/22 05:09:37;;;;;;;;;;;;;;;19.93;97.95;94589.84;5136782;27;1084;-49
2022/08/22 05:12:07;;;;;;;;;;;;;;;20.01;97.96;94591.38;5154681;27;1048;-49
2022/08/22 05:14:49;;;;;;;;;;;;;;;20.13;97.95;94588.69;5154879;27;1095;-50
2022/08/22 05:17:18;;;;;;;;;;;;;;;20.26;96.97;94586.59;5154485;27;1098;-50
2022/08/22 05:19:49;;;;;;;;;;;;;;;20.31;97.46;94579.63;5154979;27;1027;-50
2022/08/22 05:22:18;;;;;;;;;;;;;;;20.38;96.22;94588.47;5154715;27;965;-50
2022/08/22 05:24:47;;;;;;;;;;;;;;;20.47;95.44;94584.34;5154780;27;1897;-50
2022/08/22 05:27:17;;;;;;;;;;;;;;;20.58;96.14;94597.09;5156094;27;1027;-50
2022/08/22 05:29:45;;;;;;;;;;;;;;;20.58;95.40;94601.69;5158637;27;1113;-50
2022/08/22 05:32:17;;;;;;;;;;;;;;;20.63;95.97;94590.97;5158276;27;1035;-50
2022/08/22 05:34:44;;;;;;;;;;;;;;;20.75;95.78;94596.38;5158675;27;1000;-50
2022/08/22 05:37:13;;;;;;;;;;;;;;;20.94;93.60;94597.06;5158298;27;1186;-50
2022/08/22 05:39:45;;;;;;;;;;;;;;;21.09;94.08;94600.09;5158635;27;968;-50
2022/08/22 05:42:14;;;;;;;;;;;;;;;21.18;93.45;94600.56;5158114;27;1026;-51
2022/08/22 05:44:41;;;;;;;;;;;;;;;21.44;91.42;94605.47;5146889;27;2052;-50
2022/08/22 05:47:16;;;;;;;;;;;;;;;21.79;89.09;94600.94;5137388;27;1091;-50
2022/08/22 05:49:48;;;;;;;;;;;;;;;22.28;85.90;94604.00;5137405;27;1250;-49
2022/08/22 05:52:33;;;;;;;;;;;;;;;22.50;84.17;94604.09;5137332;27;1036;-50
2022/08/22 05:55:23;;;;;;;;;;;;;;;22.49;81.49;94609.78;5137504;27;1036;-50
2022/08/22 05:57:52;;;;;;;;;;;;;;;22.64;80.82;94612.72;5124067;27;1649;-50
2022/08/22 06:00:20;;;;;;;;;;;;;;;22.69;81.30;94606.50;5137239;27;1103;-50
2022/08/22 06:02:47;;;;;;;;;;;;;;;22.86;79.95;94606.47;5137177;27;1005;-50
2022/08/22 06:05:19;;;;;;;;;;;;;;;22.87;79.35;94606.25;5137092;27;1996;-49
2022/08/22 06:07:48;;;;;;;;;;;;;;;22.90;77.51;94604.94;5137338;27;969;-49
2022/08/22 06:10:14;;;;;;;;;;;;;;;22.84;79.08;94597.75;5137308;27;1044;-52
2022/08/22 06:12:45;;;;;;;;;;;;;;;22.95;78.33;94603.06;5137078;27;972;-50
2022/08/22 06:15:16;;;;;;;;;;;;;;;23.06;78.14;94608.72;5137017;27;1099;-50
2022/08/22 06:18:04;;;;;;;;;;;;;;;23.09;76.46;94613.66;5136813;27;1031;-50
2022/08/22 06:20:54;;;;;;;;;;;;;;;23.14;76.70;94608.25;5137206;27;1019;-50
2022/08/22 06:23:26;;;;;;;;;;;;;;;23.17;75.88;94603.13;5136734;27;1101;-50
2022/08/22 06:25:54;;;;;;;;;;;;;;;23.27;76.82;94607.06;5136820;27;1906;-50
2022/08/22 06:28:24;;;;;;;;;;;;;;;23.31;75.11;94616.38;5136853;27;969;-50
2022/08/22 06:30:52;;;;;;;;;;;;;;;23.38;75.75;94612.38;5136991;27;968;-50
2022/08/22 06:33:38;;;;;;;;;;;;;;;23.48;75.92;94602.69;5136426;27;1115;-50
2022/08/22 06:36:29;;;;;;;;;;;;;;;23.73;73.45;94613.03;5136738;27;1008;-50
2022/08/22 06:39:06;;;;;;;;;;;;;;;23.96;73.33;94612.78;5136417;27;1040;-50
2022/08/22 06:41:36;;;;;;;;;;;;;;;24.27;73.31;94612.25;5136599;27;1076;-50
2022/08/22 06:44:04;;;;;;;;;;;;;;;24.27;69.72;94609.53;5142425;27;1913;-50
2022/08/22 06:46:32;;;;;;;;;;;;;;;24.39;71.98;94614.81;5157325;27;1036;-50
2022/08/22 06:48:59;;;;;;;;;;;;;;;24.71;72.30;94620.25;5156819;27;1127;-50
2022/08/22 06:51:27;;;;;;;;;;;;;;;24.96;69.09;94618.78;5157065;27;1078;-50
2022/08/22 06:53:56;;;;;;;;;;;;;;;25.25;67.56;94614.63;5157130;27;928;-50
2022/08/22 06:56:24;;;;;;;;;;;;;;;25.58;65.89;94623.50;5156861;27;1051;-50
2022/08/22 06:58:53;;;;;;;;;;;;;;;25.75;66.10;94617.81;5156959;27;1127;-50
2022/08/22 07:01:38;;;;;;;;;;;;;;;26.10;62.94;94621.75;5156819;27;1023;-50
2022/08/22 07:04:06;;;;;;;;;;;;;;;26.48;62.08;94628.66;5156796;27;1913;-50
2022/08/22 07:06:37;;;;;;;;;;;;;;;26.59;61.84;94628.63;5157015;27;1019;-50
2022/08/22 07:09:04;;;;;;;;;;;;;;;26.70;60.95;94624.00;5156617;27;1027;-50
2022/08/22 07:11:35;;;;;;;;;;;;;;;26.44;61.69;94632.19;5156736;27;1126;-50
2022/08/22 07:14:06;;;;;;;;;;;;;;;26.64;64.34;94626.75;5156527;27;1011;-52
2022/08/22 07:16:34;;;;;;;;;;;;;;;26.60;63.08;94633.06;5156923;27;983;-50
2022/08/22 07:19:01;;;;;;;;;;;;;;;26.66;60.78;94632.78;5156552;27;955;-50
2022/08/22 07:21:29;;;;;;;;;;;;;;;26.86;62.53;94639.34;5156558;27;1098;-50
2022/08/22 07:23:57;;;;;;;;;;;;;;;26.71;62.04;94634.69;5156455;27;999;-50
2022/08/22 07:26:23;;;;;;;;;;;;;;;26.43;61.56;94639.59;5156330;27;1910;-50
2022/08/22 07:28:56;;;;;;;;;;;;;;;26.62;65.08;94633.59;5156234;27;953;-50
2022/08/22 07:31:28;;;;;;;;;;;;;;;26.80;58.21;94634.97;5137916;27;1028;-50
2022/08/22 07:33:59;;;;;;;;;;;;;;;27.16;60.12;94637.66;5155999;27;1090;-50
2022/08/22 07:36:25;;;;;;;;;;;;;;;27.38;60.06;94635.41;5156456;27;1039;-50
2022/08/22 07:39:03;;;;;;;;;;;;;;;27.60;57.82;94632.34;5156144;27;939;-50
2022/08/22 07:41:44;;;;;;;;;;;;;;;27.46;61.11;94645.00;5156061;27;1028;-49
2022/08/22 07:44:18;;;;;;;;;;;;;;;27.21;58.90;94643.94;5148624;27;1921;-50
2022/08/22 07:46:54;;;;;;;;;;;;;;;26.80;59.96;94638.50;5135432;27;1056;-50
2022/08/22 07:49:23;;;;;;;;;;;;;;;26.68;61.33;94649.78;5134121;27;1107;-50
2022/08/22 07:51:54;;;;;;;;;;;;;;;26.62;60.93;94652.81;5135149;27;1003;-50
2022/08/22 07:54:22;;;;;;;;;;;;;;;26.32;64.82;94650.81;5135028;27;1030;-50
2022/08/22 07:56:56;;;;;;;;;;;;;;;25.78;65.19;94650.13;5135259;27;1003;-50
2022/08/22 07:59:23;;;;;;;;;;;;;;;25.41;67.59;94651.06;5134925;27;1055;-50
2022/08/22 08:01:51;;;;;;;;;;;;;;;25.16;67.62;94650.91;5134997;27;980;-50
2022/08/22 08:04:20;;;;;;;;;;;;;;;25.02;66.69;94651.34;5135158;27;1917;-50
2022/08/22 08:06:51;;;;;;;;;;;;;;;25.12;66.24;94648.69;5135082;27;1028;-50
2022/08/22 08:09:18;;;;;;;;;;;;;;;25.55;68.31;94650.56;5134965;27;965;-50
2022/08/22 08:11:46;;;;;;;;;;;;;;;25.93;65.89;94648.53;5134809;27;995;-50
2022/08/22 08:14:13;;;;;;;;;;;;;;;26.43;65.46;94657.97;5134712;27;1095;-50
2022/08/22 08:16:42;;;;;;;;;;;;;;;26.39;65.54;94651.38;5134613;27;1048;-50
2022/08/22 08:19:10;;;;;;;;;;;;;;;26.16;65.36;94645.34;5134514;27;1016;-50
2022/08/22 08:21:39;;;;;;;;;;;;;;;26.06;65.27;94651.59;5116502;27;1036;-50
2022/08/22 08:24:06;;;;;;;;;;;;;;;26.30;65.05;94651.91;5134636;27;1990;-50
2022/08/22 08:28:32;;;;;;;;;;;;;;;26.68;62.41;94647.03;5134594;27;1031;-50
2022/08/22 08:29:27;;;;;;;;;;;;;;;26.84;61.34;94645.13;5134459;27;1024;-51
2022/08/22 08:31:54;;;;;;;;;;;;;;;26.89;61.68;94641.53;5134385;27;1016;-51
2022/08/22 08:34:22;;;;;;;;;;;;;;;26.48;63.03;94644.25;5134622;27;968;-50
2022/08/22 08:36:53;;;;;;;;;;;;;;;26.10;63.96;94647.25;5134456;27;961;-50
2022/08/22 08:39:37;;;;;;;;;;;;;;;25.67;65.57;94642.97;5134431;27;1068;-50
2022/08/22 08:42:13;;;;;;;;;;;;;;;25.27;63.74;94636.22;5134070;27;1971;-50
2022/08/22 08:44:54;;;;;;;;;;;;;;;25.22;67.70;94626.03;5145547;27;1937;-50
2022/08/22 08:47:32;;;;;;;;;;;;;;;25.24;64.65;94631.28;5155019;27;1003;-50
2022/08/22 08:50:22;;;;;;;;;;;;;;;25.32;68.08;94631.59;5154872;27;1245;-50
2022/08/22 08:52:57;;;;;;;;;;;;;;;25.36;65.74;94631.88;5155076;27;1103;-50
2022/08/22 08:55:23;;;;;;;;;;;;;;;25.34;65.31;94636.78;5154997;27;1026;-50
2022/08/22 08:57:58;;;;;;;;;;;;;;;25.32;67.00;94630.78;5154974;27;1023;-50
2022/08/22 09:00:43;;;;;;;;;;;;;;;25.33;65.45;94637.91;5155171;27;984;-50
2022/08/22 09:03:29;;;;;;;;;;;;;;;25.44;63.95;94630.53;5159475;27;969;-50
2022/08/22 09:06:05;;;;;;;;;;;;;;;25.43;62.89;94632.47;5158870;27;1992;-50
2022/08/22 09:08:41;;;;;;;;;;;;;;;25.41;64.02;94636.56;5159153;27;1289;-50
2022/08/22 09:11:36;;;;;;;;;;;;;;;25.75;65.54;94636.97;5158751;27;1036;-50
2022/08/22 09:14:10;;;;;;;;;;;;;;;25.95;63.43;94632.66;5137039;27;1534;-50
2022/08/22 09:16:45;;;;;;;;;;;;;;;26.06;63.69;94634.34;5158817;27;1059;-50
2022/08/22 09:19:29;;;;;;;;;;;;;;;25.90;61.06;94628.78;5158869;27;1017;-50
2022/08/22 09:22:23;;;;;;;;;;;;;;;26.12;62.74;94632.44;5158668;27;1048;-50
2022/08/22 09:24:50;;;;;;;;;;;;;;;26.42;64.19;94631.66;5140375;27;1909;-50
2022/08/22 09:27:22;;;;;;;;;;;;;;;26.41;64.03;94624.53;5158666;27;1027;-50
2022/08/22 09:29:58;;;;;;;;;;;;;;;26.34;63.09;94626.72;5158751;27;1030;-50
2022/08/22 09:32:27;;;;;;;;;;;;;;;26.22;60.87;94625.06;5158437;27;1095;-50
2022/08/22 09:35:04;;;;;;;;;;;;;;;26.19;62.54;94622.84;5158827;27;964;-50
2022/08/22 09:37:38;;;;;;;;;;;;;;;26.28;63.38;94629.44;5158589;27;1036;-50
2022/08/22 09:40:14;;;;;;;;;;;;;;;26.16;62.86;94622.56;5154134;27;3242;-50
2022/08/22 09:42:40;;;;;;;;;;;;;;;26.27;62.95;94625.06;5128186;27;3233;-50
2022/08/22 09:45:06;;;;;;;;;;;;;;;26.49;63.32;94613.81;5147113;27;1978;-49
2022/08/22 09:47:33;;;;;;;;;;;;;;;26.63;60.27;94613.31;5143794;27;2993;-49
2022/08/22 09:50:11;;;;;;;;;;;;;;;26.54;60.00;94612.19;5137457;27;1096;-49
2022/08/22 09:52:50;;;;;;;;;;;;;;;26.02;62.33;94614.88;5137519;27;1587;-49
2022/08/22 09:55:19;;;;;;;;;;;;;;;26.03;62.82;94615.72;5130666;27;2962;-50
2022/08/22 09:57:51;;;;;;;;;;;;;;;26.52;62.29;94612.44;5116907;28;1031;-49
2022/08/22 10:00:43;;;;;;;;;;;;;;;26.80;61.39;94613.00;5125185;27;3215;-50
2022/08/22 10:03:18;;;;;;;;;;;;;;;26.95;57.19;94602.03;5091472;27;1195;-50
2022/08/22 10:05:49;;;;;;;;;;;;;;;27.06;61.58;94603.63;5137184;27;1987;-50
2022/08/22 10:08:15;;;;;;;;;;;;;;;27.07;59.39;94593.47;5137114;27;1016;-50
2022/08/22 10:11:02;;;;;;;;;;;;;;;27.24;58.99;94588.50;5137271;27;1024;-50
2022/08/22 10:13:47;;;;;;;;;;;;;;;27.24;61.52;94585.78;5118959;27;3191;-50
2022/08/22 10:16:23;;;;;;;;;;;;;;;27.19;57.74;94590.44;5116453;28;1039;-49
2022/08/22 10:19:05;;;;;;;;;;;;;;;26.83;59.01;94579.56;5116552;28;1000;-50
2022/08/22 10:21:43;;;;;;;;;;;;;;;26.81;61.76;94579.03;5116497;28;1035;-49
2022/08/22 10:24:15;;;;;;;;;;;;;;;26.68;57.67;94577.66;5116219;28;1906;-50
2022/08/22 10:26:50;;;;;;;;;;;;;;;26.42;57.33;94582.31;5116227;28;1064;-50
2022/08/22 10:29:19;;;;;;;;;;;;;;;26.34;59.45;94588.34;5116216;28;1025;-51
2022/08/22 10:31:51;;;;;;;;;;;;;;;26.13;61.13;94580.13;5116513;28;974;-51
2022/08/22 10:34:23;;;;;;;;;;;;;;;26.29;62.11;94570.81;5097850;28;1090;-51
2022/08/22 10:36:57;;;;;;;;;;;;;;;26.26;63.16;94565.88;5116103;28;1095;-51
2022/08/22 10:39:25;;;;;;;;;;;;;;;26.31;62.33;94567.78;5116303;28;954;-51
2022/08/22 10:41:59;;;;;;;;;;;;;;;26.61;63.09;94572.44;5116110;28;1106;-50
2022/08/22 10:44:32;;;;;;;;;;;;;;;26.71;61.55;94563.38;5134488;27;1988;-50
2022/08/22 10:47:05;;;;;;;;;;;;;;;26.84;60.88;94562.84;5157575;27;973;-50
2022/08/22 10:49:39;;;;;;;;;;;;;;;26.71;60.21;94565.31;5130594;27;2632;-50
2022/08/22 10:52:17;;;;;;;;;;;;;;;26.56;62.69;94557.91;5115799;28;984;-50
2022/08/22 10:55:04;;;;;;;;;;;;;;;26.69;62.32;94557.38;5097790;28;1574;-50
2022/08/22 10:57:42;;;;;;;;;;;;;;;26.74;62.05;94554.63;5115599;28;1719;-50
2022/08/22 11:00:27;;;;;;;;;;;;;;;26.94;62.45;94564.72;5115983;28;964;-51
2022/08/22 11:03:01;;;;;;;;;;;;;;;27.05;61.27;94562.75;5115705;28;1008;-50
2022/08/22 11:05:39;;;;;;;;;;;;;;;27.15;58.67;94557.25;5115448;28;1976;-50
2022/08/22 11:08:05;;;;;;;;;;;;;;;27.12;58.98;94560.56;5115382;28;980;-51
2022/08/22 11:10:37;;;;;;;;;;;;;;;26.92;60.46;94555.13;5115339;28;1028;-50
2022/08/22 11:13:11;;;;;;;;;;;;;;;26.48;60.10;94559.28;5115424;28;987;-51
2022/08/22 11:15:40;;;;;;;;;;;;;;;26.15;63.30;94555.19;5115748;28;957;-51
2022/08/22 11:18:07;;;;;;;;;;;;;;;26.07;64.08;94551.09;5115321;28;957;-51
2022/08/22 11:20:42;;;;;;;;;;;;;;;26.03;61.87;94552.72;5115291;28;980;-50
2022/08/22 11:23:15;;;;;;;;;;;;;;;25.93;64.85;94550.78;5114967;28;1032;-50
2022/08/22 11:25:44;;;;;;;;;;;;;;;25.76;66.96;94556.47;5114019;28;1993;-50
2022/08/22 11:28:20;;;;;;;;;;;;;;;25.66;64.25;94535.38;5115149;28;1028;-50
2022/08/22 11:30:58;;;;;;;;;;;;;;;25.66;64.87;94540.84;5115371;28;942;-50
2022/08/22 11:33:43;;;;;;;;;;;;;;;25.56;64.93;94534.56;5115049;28;995;-50
2022/08/22 11:36:21;;;;;;;;;;;;;;;25.56;67.71;94540.03;5114722;28;984;-50
2022/08/22 11:39:05;;;;;;;;;;;;;;;25.59;64.78;94550.41;5115160;28;1054;-50
2022/08/22 11:41:38;;;;;;;;;;;;;;;25.59;64.37;94555.88;5115151;28;1035;-50
2022/08/22 11:44:19;;;;;;;;;;;;;;;25.56;65.94;94551.78;5127172;27;1204;-50
2022/08/22 11:46:48;;;;;;;;;;;;;;;25.57;65.94;94552.59;5156193;27;963;-50
2022/08/22 11:49:20;;;;;;;;;;;;;;;25.57;65.56;94550.69;5130995;27;2637;-49
2022/08/22 11:51:56;;;;;;;;;;;;;;;25.59;66.57;94553.16;5114964;28;1001;-49
2022/08/22 11:54:42;;;;;;;;;;;;;;;25.59;66.77;94553.16;5114363;28;910;-49
2022/08/22 11:57:27;;;;;;;;;;;;;;;25.58;67.44;94557.81;5073218;28;1193;-50
2022/08/22 12:00:17;;;;;;;;;;;;;;;25.55;67.73;94554.78;5114347;28;1029;-50
2022/08/22 12:02:43;;;;;;;;;;;;;;;25.51;66.98;94551.75;5076848;28;1080;-49
2022/08/22 12:05:11;;;;;;;;;;;;;;;25.47;68.55;94550.66;5114500;28;1905;-50
2022/08/22 12:07:39;;;;;;;;;;;;;;;25.55;69.21;94539.19;5114422;28;1025;-50
2022/08/22 12:10:11;;;;;;;;;;;;;;;25.73;67.35;94539.78;5114327;28;958;-50
2022/08/22 12:12:56;;;;;;;;;;;;;;;25.81;68.43;94526.38;5114344;28;1020;-50
2022/08/22 12:15:44;;;;;;;;;;;;;;;26.09;68.45;94525.06;5113955;28;1048;-50
2022/08/22 12:18:20;;;;;;;;;;;;;;;26.23;68.19;94514.34;5114108;28;1132;-49
2022/08/22 12:21:12;;;;;;;;;;;;;;;26.40;64.77;94521.47;5114135;28;1267;-50
2022/08/22 12:23:41;;;;;;;;;;;;;;;26.41;65.56;94514.91;5113941;28;1079;-50
2022/08/22 12:26:26;;;;;;;;;;;;;;;26.29;62.66;94510.53;5114207;28;1988;-50
2022/08/22 12:29:11;;;;;;;;;;;;;;;26.43;63.21;94523.69;5114061;28;968;-50
2022/08/22 12:31:43;;;;;;;;;;;;;;;26.66;64.39;94531.34;5114383;28;1028;-50
2022/08/22 12:34:15;;;;;;;;;;;;;;;26.78;66.48;94530.22;5113860;28;1130;-50
2022/08/22 12:36:47;;;;;;;;;;;;;;;26.76;62.41;94525.00;5113650;28;1075;-50
2022/08/22 12:39:34;;;;;;;;;;;;;;;26.62;61.78;94515.72;5113915;28;1047;-50
2022/08/22 12:42:30;;;;;;;;;;;;;;;26.55;58.57;94507.75;5113300;28;1042;-50
2022/08/22 12:44:55;;;;;;;;;;;;;;;26.45;61.67;94505.84;5054072;28;1909;-50
2022/08/22 12:47:30;;;;;;;;;;;;;;;26.53;63.03;94493.50;5134654;27;1037;-50
2022/08/22 12:53:52;;;;;;;;;;;;;;;26.82;62.57;94506.63;5093222;28;3176;-50
2022/08/22 12:56:26;;;;;;;;;;;;;;;26.81;62.81;94518.69;5104491;28;3269;-50
2022/08/22 12:58:55;;;;;;;;;;;;;;;26.78;60.63;94528.28;5093549;28;986;-50
2022/08/22 13:01:22;;;;;;;;;;;;;;;26.58;60.73;94531.03;5106238;28;3238;-50
2022/08/22 13:04:01;;;;;;;;;;;;;;;26.35;60.10;94521.47;5108337;28;3222;-50
2022/08/22 13:06:36;;;;;;;;;;;;;;;26.09;59.45;94518.75;5100818;28;3291;-50
2022/08/22 13:09:34;;;;;;;;;;;;;;;26.06;60.92;94500.13;5093545;28;3202;-50
2022/08/22 13:12:14;;;;;;;;;;;;;;;25.94;59.71;94494.13;5068707;28;1313;-50
2022/08/22 13:14:43;;;;;;;;;;;;;;;25.98;58.91;94497.94;5113632;28;1036;-50
2022/08/22 13:17:12;;;;;;;;;;;;;;;26.00;60.60;94509.44;5113539;28;1044;-50
2022/08/22 13:19:47;;;;;;;;;;;;;;;25.90;59.05;94504.75;5113284;28;1040;-50
2022/08/22 13:22:18;;;;;;;;;;;;;;;25.84;59.28;94508.59;5104767;28;3147;-50
2022/08/22 13:24:44;;;;;;;;;;;;;;;25.80;62.37;94496.53;5093154;28;1909;-50
2022/08/22 13:27:15;;;;;;;;;;;;;;;25.69;65.52;94493.78;5093005;28;1025;-50
2022/08/22 13:29:46;;;;;;;;;;;;;;;25.52;66.24;94490.47;5092895;28;1087;-50
2022/08/22 13:32:35;;;;;;;;;;;;;;;25.48;67.81;94486.66;5093105;28;1404;-50
2022/08/22 13:35:02;;;;;;;;;;;;;;;25.52;66.14;94504.97;5084791;28;1162;-50
2022/08/22 13:37:39;;;;;;;;;;;;;;;25.54;67.55;94521.13;5093338;28;1020;-50
2022/08/22 13:40:08;;;;;;;;;;;;;;;25.50;68.19;94528.25;5092754;28;1087;-50
2022/08/22 13:42:37;;;;;;;;;;;;;;;25.44;69.59;94526.56;5093330;28;1015;-50
2022/08/22 13:45:09;;;;;;;;;;;;;;;25.31;68.83;94534.19;5121657;28;1917;-50